sensor_id;sensor_type;location;lat;lon;timestamp;temperature;humidity
64874;HTU21D;51367;45.204;38.576;2022-12-11T00:01:15;10.40;69.18
64874;HTU21D;51367;45.204;38.576;2022-12-11T00:03:41;10.35;69.30
64874;HTU21D;51367;45.204;38.576;2022-12-11T00:06:09;10.33;69.46
64874;HTU21D;51367;45.204;38.576;2022-12-11T00:08:36;10.28;69.58
64874;HTU21D;51367;45.204;38.576;2022-12-11T00:11:02;10.22;69.69
64874;HTU21D;51367;45.204;38.576;2022-12-11T00:13:28;10.18;69.84
64874;HTU21D;51367;45.204;38.576;2022-12-11T00:15:54;10.14;70.09
64874;HTU21D;51367;45.204;38.576;2022-12-11T00:18:20;10.12;70.13
64874;HTU21D;51367;45.204;38.576;2022-12-11T00:20:46;10.10;70.10
64874;HTU21D;51367;45.204;38.576;2022-12-11T00:23:12;10.07;70.23
64874;HTU21D;51367;45.204;38.576;2022-12-11T00:25:42;10.04;70.26
64874;HTU21D;51367;45.204;38.576;2022-12-11T00:28:10;10.01;70.40
64874;HTU21D;51367;45.204;38.576;2022-12-11T00:30:40;9.98;70.43
64874;HTU21D;51367;45.204;38.576;2022-12-11T00:33:10;9.95;70.43
64874;HTU21D;51367;45.204;38.576;2022-12-11T00:35:40;9.92;70.52
64874;HTU21D;51367;45.204;38.576;2022-12-11T00:38:07;9.88;70.64
64874;HTU21D;51367;45.204;38.576;2022-12-11T00:40:34;9.84;70.67
64874;HTU21D;51367;45.204;38.576;2022-12-11T00:43:00;9.83;70.74
64874;HTU21D;51367;45.204;38.576;2022-12-11T00:45:26;9.80;70.77
64874;HTU21D;51367;45.204;38.576;2022-12-11T00:47:52;9.79;70.73
64874;HTU21D;51367;45.204;38.576;2022-12-11T00:50:18;9.75;70.77
64874;HTU21D;51367;45.204;38.576;2022-12-11T00:52:44;9.70;70.86
64874;HTU21D;51367;45.204;38.576;2022-12-11T00:55:10;9.65;71.03
64874;HTU21D;51367;45.204;38.576;2022-12-11T00:57:36;9.61;71.20
64874;HTU21D;51367;45.204;38.576;2022-12-11T01:00:04;9.55;71.31
64874;HTU21D;51367;45.204;38.576;2022-12-11T01:02:33;9.52;71.51
64874;HTU21D;51367;45.204;38.576;2022-12-11T01:04:59;9.48;71.55
64874;HTU21D;51367;45.204;38.576;2022-12-11T01:07:25;9.46;71.76
64874;HTU21D;51367;45.204;38.576;2022-12-11T01:09:51;9.44;71.80
64874;HTU21D;51367;45.204;38.576;2022-12-11T01:12:35;9.41;71.83
64874;HTU21D;51367;45.204;38.576;2022-12-11T01:15:02;9.40;71.87
64874;HTU21D;51367;45.204;38.576;2022-12-11T01:17:28;9.39;71.91
64874;HTU21D;51367;45.204;38.576;2022-12-11T01:19:54;9.37;72.16
64874;HTU21D;51367;45.204;38.576;2022-12-11T01:22:20;9.36;72.31
64874;HTU21D;51367;45.204;38.576;2022-12-11T01:24:46;9.35;72.36
64874;HTU21D;51367;45.204;38.576;2022-12-11T01:27:12;9.34;72.46
64874;HTU21D;51367;45.204;38.576;2022-12-11T01:29:38;9.33;72.45
64874;HTU21D;51367;45.204;38.576;2022-12-11T01:32:04;9.30;72.62
64874;HTU21D;51367;45.204;38.576;2022-12-11T01:34:31;9.27;72.77
64874;HTU21D;51367;45.204;38.576;2022-12-11T01:36:58;9.23;72.83
64874;HTU21D;51367;45.204;38.576;2022-12-11T01:39:24;9.22;72.96
64874;HTU21D;51367;45.204;38.576;2022-12-11T01:41:50;9.20;73.10
64874;HTU21D;51367;45.204;38.576;2022-12-11T01:46:42;9.16;73.23
64874;HTU21D;51367;45.204;38.576;2022-12-11T01:49:11;9.15;73.30
64874;HTU21D;51367;45.204;38.576;2022-12-11T01:51:58;9.15;73.31
64874;HTU21D;51367;45.204;38.576;2022-12-11T01:54:27;9.12;73.42
64874;HTU21D;51367;45.204;38.576;2022-12-11T01:56:57;9.12;73.46
64874;HTU21D;51367;45.204;38.576;2022-12-11T01:59:27;9.11;73.51
64874;HTU21D;51367;45.204;38.576;2022-12-11T02:01:57;9.09;73.48
64874;HTU21D;51367;45.204;38.576;2022-12-11T02:04:25;9.08;73.47
64874;HTU21D;51367;45.204;38.576;2022-12-11T02:06:51;9.07;73.47
64874;HTU21D;51367;45.204;38.576;2022-12-11T02:09:24;9.06;73.47
64874;HTU21D;51367;45.204;38.576;2022-12-11T02:14:52;9.06;73.42
64874;HTU21D;51367;45.204;38.576;2022-12-11T02:20:27;9.06;73.41
64874;HTU21D;51367;45.204;38.576;2022-12-11T02:28:47;9.07;73.54
64874;HTU21D;51367;45.204;38.576;2022-12-11T02:31:45;9.09;73.58
64874;HTU21D;51367;45.204;38.576;2022-12-11T02:34:30;9.10;73.62
64874;HTU21D;51367;45.204;38.576;2022-12-11T02:37:01;9.10;73.66
64874;HTU21D;51367;45.204;38.576;2022-12-11T02:39:30;9.10;73.67
64874;HTU21D;51367;45.204;38.576;2022-12-11T02:41:58;9.10;73.70
64874;HTU21D;51367;45.204;38.576;2022-12-11T02:44:26;9.11;73.72
64874;HTU21D;51367;45.204;38.576;2022-12-11T02:46:54;9.10;73.70
64874;HTU21D;51367;45.204;38.576;2022-12-11T02:49:22;9.10;73.73
64874;HTU21D;51367;45.204;38.576;2022-12-11T02:51:49;9.08;73.74
64874;HTU21D;51367;45.204;38.576;2022-12-11T02:54:20;9.07;73.77
64874;HTU21D;51367;45.204;38.576;2022-12-11T02:59:45;9.07;73.85
64874;HTU21D;51367;45.204;38.576;2022-12-11T03:02:15;9.05;73.93
64874;HTU21D;51367;45.204;38.576;2022-12-11T03:04:42;9.03;73.92
64874;HTU21D;51367;45.204;38.576;2022-12-11T03:07:12;9.02;73.97
64874;HTU21D;51367;45.204;38.576;2022-12-11T03:09:40;9.00;73.96
64874;HTU21D;51367;45.204;38.576;2022-12-11T03:12:08;8.97;73.98
64874;HTU21D;51367;45.204;38.576;2022-12-11T03:14:36;8.96;74.01
64874;HTU21D;51367;45.204;38.576;2022-12-11T03:22:03;8.92;74.07
64874;HTU21D;51367;45.204;38.576;2022-12-11T03:24:59;8.90;74.04
64874;HTU21D;51367;45.204;38.576;2022-12-11T03:27:41;8.89;74.04
64874;HTU21D;51367;45.204;38.576;2022-12-11T03:30:13;8.86;74.06
64874;HTU21D;51367;45.204;38.576;2022-12-11T03:32:48;8.86;74.04
64874;HTU21D;51367;45.204;38.576;2022-12-11T03:35:26;8.85;74.09
64874;HTU21D;51367;45.204;38.576;2022-12-11T03:37:55;8.85;74.11
64874;HTU21D;51367;45.204;38.576;2022-12-11T03:40:24;8.83;74.11
64874;HTU21D;51367;45.204;38.576;2022-12-11T03:42:51;8.82;74.11
64874;HTU21D;51367;45.204;38.576;2022-12-11T03:45:19;8.80;74.09
64874;HTU21D;51367;45.204;38.576;2022-12-11T03:47:47;8.80;74.12
64874;HTU21D;51367;45.204;38.576;2022-12-11T03:50:16;8.79;74.19
64874;HTU21D;51367;45.204;38.576;2022-12-11T03:52:44;8.77;74.23
64874;HTU21D;51367;45.204;38.576;2022-12-11T03:55:12;8.74;74.34
64874;HTU21D;51367;45.204;38.576;2022-12-11T03:57:39;8.73;74.39
64874;HTU21D;51367;45.204;38.576;2022-12-11T04:00:08;8.72;74.41
64874;HTU21D;51367;45.204;38.576;2022-12-11T04:02:38;8.72;74.41
64874;HTU21D;51367;45.204;38.576;2022-12-11T04:05:04;8.72;74.48
64874;HTU21D;51367;45.204;38.576;2022-12-11T04:07:30;8.72;74.44
64874;HTU21D;51367;45.204;38.576;2022-12-11T04:09:56;8.73;74.41
64874;HTU21D;51367;45.204;38.576;2022-12-11T04:12:22;8.72;74.38
64874;HTU21D;51367;45.204;38.576;2022-12-11T04:14:48;8.72;74.41
64874;HTU21D;51367;45.204;38.576;2022-12-11T04:17:34;8.70;74.47
64874;HTU21D;51367;45.204;38.576;2022-12-11T04:20:20;8.70;74.50
64874;HTU21D;51367;45.204;38.576;2022-12-11T04:23:13;8.67;74.54
64874;HTU21D;51367;45.204;38.576;2022-12-11T04:26:08;8.65;74.52
64874;HTU21D;51367;45.204;38.576;2022-12-11T04:28:35;8.64;74.59
64874;HTU21D;51367;45.204;38.576;2022-12-11T04:31:01;8.64;74.57
64874;HTU21D;51367;45.204;38.576;2022-12-11T04:33:28;8.61;74.54
64874;HTU21D;51367;45.204;38.576;2022-12-11T04:35:57;8.59;74.60
64874;HTU21D;51367;45.204;38.576;2022-12-11T04:38:23;8.57;74.61
64874;HTU21D;51367;45.204;38.576;2022-12-11T04:41:04;8.53;74.65
64874;HTU21D;51367;45.204;38.576;2022-12-11T04:43:30;8.52;74.69
64874;HTU21D;51367;45.204;38.576;2022-12-11T04:46:18;8.51;74.65
64874;HTU21D;51367;45.204;38.576;2022-12-11T04:48:44;8.49;74.63
64874;HTU21D;51367;45.204;38.576;2022-12-11T04:51:11;8.47;74.63
64874;HTU21D;51367;45.204;38.576;2022-12-11T04:53:37;8.46;74.64
64874;HTU21D;51367;45.204;38.576;2022-12-11T04:56:05;8.46;74.65
64874;HTU21D;51367;45.204;38.576;2022-12-11T04:58:31;8.47;74.62
64874;HTU21D;51367;45.204;38.576;2022-12-11T05:00:57;8.45;74.60
64874;HTU21D;51367;45.204;38.576;2022-12-11T05:03:23;8.46;74.59
64874;HTU21D;51367;45.204;38.576;2022-12-11T05:05:51;8.47;74.58
64874;HTU21D;51367;45.204;38.576;2022-12-11T05:08:20;8.45;74.56
64874;HTU21D;51367;45.204;38.576;2022-12-11T05:10:57;8.47;74.53
64874;HTU21D;51367;45.204;38.576;2022-12-11T05:13:24;8.45;74.54
64874;HTU21D;51367;45.204;38.576;2022-12-11T05:15:50;8.44;74.51
64874;HTU21D;51367;45.204;38.576;2022-12-11T05:18:16;8.45;74.49
64874;HTU21D;51367;45.204;38.576;2022-12-11T05:20:42;8.45;74.51
64874;HTU21D;51367;45.204;38.576;2022-12-11T05:23:08;8.43;74.52
64874;HTU21D;51367;45.204;38.576;2022-12-11T05:25:34;8.43;74.50
64874;HTU21D;51367;45.204;38.576;2022-12-11T05:28:00;8.41;74.54
64874;HTU21D;51367;45.204;38.576;2022-12-11T05:30:26;8.39;74.54
64874;HTU21D;51367;45.204;38.576;2022-12-11T05:32:52;8.38;74.59
64874;HTU21D;51367;45.204;38.576;2022-12-11T05:35:18;8.38;74.62
64874;HTU21D;51367;45.204;38.576;2022-12-11T05:37:44;8.36;74.64
64874;HTU21D;51367;45.204;38.576;2022-12-11T05:40:10;8.37;74.70
64874;HTU21D;51367;45.204;38.576;2022-12-11T05:42:37;8.39;74.73
64874;HTU21D;51367;45.204;38.576;2022-12-11T05:45:03;8.43;74.76
64874;HTU21D;51367;45.204;38.576;2022-12-11T05:47:30;8.46;74.76
64874;HTU21D;51367;45.204;38.576;2022-12-11T05:49:56;8.53;74.73
64874;HTU21D;51367;45.204;38.576;2022-12-11T05:52:22;8.63;74.73
64874;HTU21D;51367;45.204;38.576;2022-12-11T05:54:49;8.75;74.64
64874;HTU21D;51367;45.204;38.576;2022-12-11T05:57:15;8.91;74.58
64874;HTU21D;51367;45.204;38.576;2022-12-11T05:59:41;9.08;74.60
64874;HTU21D;51367;45.204;38.576;2022-12-11T06:02:07;9.34;74.57
64874;HTU21D;51367;45.204;38.576;2022-12-11T06:04:33;9.63;74.41
64874;HTU21D;51367;45.204;38.576;2022-12-11T06:06:59;9.99;74.12
64874;HTU21D;51367;45.204;38.576;2022-12-11T06:09:25;10.40;73.74
64874;HTU21D;51367;45.204;38.576;2022-12-11T06:11:51;10.79;73.38
64874;HTU21D;51367;45.204;38.576;2022-12-11T06:14:17;11.19;73.18
64874;HTU21D;51367;45.204;38.576;2022-12-11T06:16:43;11.56;72.58
64874;HTU21D;51367;45.204;38.576;2022-12-11T06:19:13;11.93;72.15
64874;HTU21D;51367;45.204;38.576;2022-12-11T06:21:39;12.27;71.06
64874;HTU21D;51367;45.204;38.576;2022-12-11T06:24:06;12.60;70.26
64874;HTU21D;51367;45.204;38.576;2022-12-11T06:26:32;12.85;69.24
64874;HTU21D;51367;45.204;38.576;2022-12-11T06:28:58;13.09;68.31
64874;HTU21D;51367;45.204;38.576;2022-12-11T06:31:24;13.32;67.15
64874;HTU21D;51367;45.204;38.576;2022-12-11T06:33:49;13.59;67.54
64874;HTU21D;51367;45.204;38.576;2022-12-11T06:36:19;13.93;67.01
64874;HTU21D;51367;45.204;38.576;2022-12-11T06:38:45;14.24;66.36
64874;HTU21D;51367;45.204;38.576;2022-12-11T06:41:12;14.51;65.33
64874;HTU21D;51367;45.204;38.576;2022-12-11T06:43:40;14.72;64.22
64874;HTU21D;51367;45.204;38.576;2022-12-11T06:46:16;14.87;63.31
64874;HTU21D;51367;45.204;38.576;2022-12-11T06:48:42;14.98;62.70
64874;HTU21D;51367;45.204;38.576;2022-12-11T06:51:11;15.12;62.64
64874;HTU21D;51367;45.204;38.576;2022-12-11T06:53:37;15.23;61.83
64874;HTU21D;51367;45.204;38.576;2022-12-11T06:56:06;15.32;61.80
64874;HTU21D;51367;45.204;38.576;2022-12-11T06:58:34;15.38;60.68
64874;HTU21D;51367;45.204;38.576;2022-12-11T07:01:00;15.38;60.86
64874;HTU21D;51367;45.204;38.576;2022-12-11T07:03:27;15.41;60.83
64874;HTU21D;51367;45.204;38.576;2022-12-11T07:05:53;15.52;61.22
64874;HTU21D;51367;45.204;38.576;2022-12-11T07:08:19;15.67;60.96
64874;HTU21D;51367;45.204;38.576;2022-12-11T07:10:45;15.77;60.50
64874;HTU21D;51367;45.204;38.576;2022-12-11T07:13:10;15.88;59.61
64874;HTU21D;51367;45.204;38.576;2022-12-11T07:15:36;15.98;59.41
64874;HTU21D;51367;45.204;38.576;2022-12-11T07:18:02;16.07;59.32
64874;HTU21D;51367;45.204;38.576;2022-12-11T07:20:28;16.20;59.22
64874;HTU21D;51367;45.204;38.576;2022-12-11T07:22:54;16.29;58.74
64874;HTU21D;51367;45.204;38.576;2022-12-11T07:25:20;16.35;58.00
64874;HTU21D;51367;45.204;38.576;2022-12-11T07:27:46;16.40;57.93
64874;HTU21D;51367;45.204;38.576;2022-12-11T07:30:12;16.45;58.08
64874;HTU21D;51367;45.204;38.576;2022-12-11T07:32:39;16.51;58.20
64874;HTU21D;51367;45.204;38.576;2022-12-11T07:35:05;16.58;57.41
64874;HTU21D;51367;45.204;38.576;2022-12-11T07:37:31;16.64;57.71
64874;HTU21D;51367;45.204;38.576;2022-12-11T07:39:57;16.74;57.87
64874;HTU21D;51367;45.204;38.576;2022-12-11T07:42:23;16.87;57.87
64874;HTU21D;51367;45.204;38.576;2022-12-11T07:44:49;17.02;57.51
64874;HTU21D;51367;45.204;38.576;2022-12-11T07:47:15;17.14;57.82
64874;HTU21D;51367;45.204;38.576;2022-12-11T07:49:41;17.30;57.16
64874;HTU21D;51367;45.204;38.576;2022-12-11T07:52:07;17.43;56.59
64874;HTU21D;51367;45.204;38.576;2022-12-11T07:54:33;17.51;55.57
64874;HTU21D;51367;45.204;38.576;2022-12-11T07:56:59;17.50;55.29
64874;HTU21D;51367;45.204;38.576;2022-12-11T07:59:24;17.39;54.94
64874;HTU21D;51367;45.204;38.576;2022-12-11T08:01:50;17.36;55.38
64874;HTU21D;51367;45.204;38.576;2022-12-11T08:04:16;17.35;55.47
64874;HTU21D;51367;45.204;38.576;2022-12-11T08:06:42;17.20;55.04
64874;HTU21D;51367;45.204;38.576;2022-12-11T08:09:11;16.93;55.29
64874;HTU21D;51367;45.204;38.576;2022-12-11T08:11:37;16.84;55.87
64874;HTU21D;51367;45.204;38.576;2022-12-11T08:14:04;16.86;55.82
64874;HTU21D;51367;45.204;38.576;2022-12-11T08:16:31;16.86;56.00
64874;HTU21D;51367;45.204;38.576;2022-12-11T08:18:57;16.89;55.81
64874;HTU21D;51367;45.204;38.576;2022-12-11T08:21:25;16.90;55.88
64874;HTU21D;51367;45.204;38.576;2022-12-11T08:23:53;16.94;55.88
64874;HTU21D;51367;45.204;38.576;2022-12-11T08:26:24;16.87;55.58
64874;HTU21D;51367;45.204;38.576;2022-12-11T08:28:51;16.71;55.97
64874;HTU21D;51367;45.204;38.576;2022-12-11T08:31:18;16.57;55.99
64874;HTU21D;51367;45.204;38.576;2022-12-11T08:33:44;16.47;56.31
64874;HTU21D;51367;45.204;38.576;2022-12-11T08:36:13;16.44;56.47
64874;HTU21D;51367;45.204;38.576;2022-12-11T08:38:40;16.43;56.58
64874;HTU21D;51367;45.204;38.576;2022-12-11T08:41:11;16.45;56.43
64874;HTU21D;51367;45.204;38.576;2022-12-11T08:43:38;16.47;56.66
64874;HTU21D;51367;45.204;38.576;2022-12-11T08:46:04;16.49;56.83
64874;HTU21D;51367;45.204;38.576;2022-12-11T08:48:32;16.52;56.88
64874;HTU21D;51367;45.204;38.576;2022-12-11T08:51:03;16.52;56.72
64874;HTU21D;51367;45.204;38.576;2022-12-11T08:53:30;16.48;56.83
64874;HTU21D;51367;45.204;38.576;2022-12-11T08:56:01;16.46;56.82
64874;HTU21D;51367;45.204;38.576;2022-12-11T08:58:27;16.37;56.86
64874;HTU21D;51367;45.204;38.576;2022-12-11T09:00:54;16.29;57.12
64874;HTU21D;51367;45.204;38.576;2022-12-11T09:03:20;16.21;57.41
64874;HTU21D;51367;45.204;38.576;2022-12-11T09:05:46;16.14;57.64
64874;HTU21D;51367;45.204;38.576;2022-12-11T09:08:12;16.08;57.86
64874;HTU21D;51367;45.204;38.576;2022-12-11T09:10:38;16.05;58.09
64874;HTU21D;51367;45.204;38.576;2022-12-11T09:13:04;16.10;58.07
64874;HTU21D;51367;45.204;38.576;2022-12-11T09:15:33;16.10;58.02
64874;HTU21D;51367;45.204;38.576;2022-12-11T09:18:19;16.10;58.04
64874;HTU21D;51367;45.204;38.576;2022-12-11T09:20:45;16.13;58.00
64874;HTU21D;51367;45.204;38.576;2022-12-11T09:23:11;16.19;57.89
64874;HTU21D;51367;45.204;38.576;2022-12-11T09:25:39;16.29;57.66
64874;HTU21D;51367;45.204;38.576;2022-12-11T09:28:05;16.41;57.06
64874;HTU21D;51367;45.204;38.576;2022-12-11T09:30:31;16.55;56.95
64874;HTU21D;51367;45.204;38.576;2022-12-11T09:32:57;16.70;56.51
64874;HTU21D;51367;45.204;38.576;2022-12-11T09:35:23;16.84;56.28
64874;HTU21D;51367;45.204;38.576;2022-12-11T09:37:49;17.00;55.81
64874;HTU21D;51367;45.204;38.576;2022-12-11T09:40:15;17.05;55.33
64874;HTU21D;51367;45.204;38.576;2022-12-11T09:42:54;17.09;55.46
64874;HTU21D;51367;45.204;38.576;2022-12-11T09:45:21;17.17;55.34
64874;HTU21D;51367;45.204;38.576;2022-12-11T09:47:51;17.25;55.25
64874;HTU21D;51367;45.204;38.576;2022-12-11T09:50:24;17.34;55.49
64874;HTU21D;51367;45.204;38.576;2022-12-11T09:53:02;17.47;55.32
64874;HTU21D;51367;45.204;38.576;2022-12-11T10:01:51;17.69;53.92
64874;HTU21D;51367;45.204;38.576;2022-12-11T10:10:10;17.68;53.65
64874;HTU21D;51367;45.204;38.576;2022-12-11T10:17:57;17.58;53.81
64874;HTU21D;51367;45.204;38.576;2022-12-11T10:20:28;17.56;54.22
64874;HTU21D;51367;45.204;38.576;2022-12-11T10:23:02;17.58;54.02
64874;HTU21D;51367;45.204;38.576;2022-12-11T10:25:31;17.59;53.97
64874;HTU21D;51367;45.204;38.576;2022-12-11T10:28:09;17.56;53.59
64874;HTU21D;51367;45.204;38.576;2022-12-11T10:30:40;17.54;53.81
64874;HTU21D;51367;45.204;38.576;2022-12-11T10:33:19;17.52;53.53
64874;HTU21D;51367;45.204;38.576;2022-12-11T10:35:55;17.49;53.64
64874;HTU21D;51367;45.204;38.576;2022-12-11T10:38:37;17.48;53.53
64874;HTU21D;51367;45.204;38.576;2022-12-11T10:41:18;17.46;53.62
64874;HTU21D;51367;45.204;38.576;2022-12-11T10:43:48;17.48;53.58
64874;HTU21D;51367;45.204;38.576;2022-12-11T10:46:23;17.52;53.66
64874;HTU21D;51367;45.204;38.576;2022-12-11T10:48:52;17.56;53.24
64874;HTU21D;51367;45.204;38.576;2022-12-11T10:51:21;17.59;53.18
64874;HTU21D;51367;45.204;38.576;2022-12-11T10:53:52;17.59;53.27
64874;HTU21D;51367;45.204;38.576;2022-12-11T10:56:31;17.60;53.21
64874;HTU21D;51367;45.204;38.576;2022-12-11T10:58:59;17.60;53.24
64874;HTU21D;51367;45.204;38.576;2022-12-11T11:01:27;17.59;53.10
64874;HTU21D;51367;45.204;38.576;2022-12-11T11:06:26;17.63;52.95
64874;HTU21D;51367;45.204;38.576;2022-12-11T11:08:55;17.65;53.03
64874;HTU21D;51367;45.204;38.576;2022-12-11T11:11:32;17.67;52.56
64874;HTU21D;51367;45.204;38.576;2022-12-11T11:14:20;17.66;52.86
64874;HTU21D;51367;45.204;38.576;2022-12-11T11:16:49;17.69;52.82
64874;HTU21D;51367;45.204;38.576;2022-12-11T11:19:35;17.66;52.22
64874;HTU21D;51367;45.204;38.576;2022-12-11T11:22:11;17.60;52.60
64874;HTU21D;51367;45.204;38.576;2022-12-11T11:24:38;17.56;52.78
64874;HTU21D;51367;45.204;38.576;2022-12-11T11:29:46;17.55;52.88
64874;HTU21D;51367;45.204;38.576;2022-12-11T11:32:33;17.54;52.58
64874;HTU21D;51367;45.204;38.576;2022-12-11T11:37:36;17.50;52.82
64874;HTU21D;51367;45.204;38.576;2022-12-11T11:40:18;17.45;52.79
64874;HTU21D;51367;45.204;38.576;2022-12-11T11:43:02;17.40;52.63
64874;HTU21D;51367;45.204;38.576;2022-12-11T11:45:41;17.32;52.64
64874;HTU21D;51367;45.204;38.576;2022-12-11T11:48:23;17.23;53.04
64874;HTU21D;51367;45.204;38.576;2022-12-11T11:50:52;17.16;53.20
64874;HTU21D;51367;45.204;38.576;2022-12-11T11:53:33;17.05;53.33
64874;HTU21D;51367;45.204;38.576;2022-12-11T11:56:20;16.95;53.41
64874;HTU21D;51367;45.204;38.576;2022-12-11T11:59:00;16.88;53.45
64874;HTU21D;51367;45.204;38.576;2022-12-11T12:01:29;16.79;53.54
64874;HTU21D;51367;45.204;38.576;2022-12-11T12:03:55;16.72;53.59
64874;HTU21D;51367;45.204;38.576;2022-12-11T12:18:14;16.28;53.69
64874;HTU21D;51367;45.204;38.576;2022-12-11T12:31:40;15.80;54.26
64874;HTU21D;51367;45.204;38.576;2022-12-11T12:37:36;15.61;54.59
64874;HTU21D;51367;45.204;38.576;2022-12-11T12:48:35;15.26;54.94
64874;HTU21D;51367;45.204;38.576;2022-12-11T12:51:01;15.18;55.07
64874;HTU21D;51367;45.204;38.576;2022-12-11T12:53:31;15.11;55.18
64874;HTU21D;51367;45.204;38.576;2022-12-11T12:55:58;15.03;55.32
64874;HTU21D;51367;45.204;38.576;2022-12-11T12:58:46;14.95;55.48
64874;HTU21D;51367;45.204;38.576;2022-12-11T13:03:59;14.77;55.84
64874;HTU21D;51367;45.204;38.576;2022-12-11T13:06:39;14.66;56.01
64874;HTU21D;51367;45.204;38.576;2022-12-11T13:09:20;14.59;56.16
64874;HTU21D;51367;45.204;38.576;2022-12-11T13:11:49;14.52;56.33
64874;HTU21D;51367;45.204;38.576;2022-12-11T13:16:47;14.35;56.57
64874;HTU21D;51367;45.204;38.576;2022-12-11T13:24:30;14.09;57.06
64874;HTU21D;51367;45.204;38.576;2022-12-11T13:27:08;13.97;57.23
64874;HTU21D;51367;45.204;38.576;2022-12-11T13:29:41;13.86;57.40
64874;HTU21D;51367;45.204;38.576;2022-12-11T13:34:41;13.66;57.70
64874;HTU21D;51367;45.204;38.576;2022-12-11T13:37:35;13.55;57.87
64874;HTU21D;51367;45.204;38.576;2022-12-11T13:40:07;13.45;58.06
64874;HTU21D;51367;45.204;38.576;2022-12-11T13:43:00;13.34;58.25
64874;HTU21D;51367;45.204;38.576;2022-12-11T13:45:44;13.23;58.48
64874;HTU21D;51367;45.204;38.576;2022-12-11T13:51:06;13.03;58.87
64874;HTU21D;51367;45.204;38.576;2022-12-11T13:53:32;12.94;59.01
64874;HTU21D;51367;45.204;38.576;2022-12-11T13:58:27;12.80;59.26
64874;HTU21D;51367;45.204;38.576;2022-12-11T14:01:13;12.72;59.37
64874;HTU21D;51367;45.204;38.576;2022-12-11T14:03:54;12.65;59.49
64874;HTU21D;51367;45.204;38.576;2022-12-11T14:06:20;12.58;59.61
64874;HTU21D;51367;45.204;38.576;2022-12-11T14:08:49;12.52;59.68
64874;HTU21D;51367;45.204;38.576;2022-12-11T14:11:35;12.46;59.77
64874;HTU21D;51367;45.204;38.576;2022-12-11T14:14:04;12.40;59.83
64874;HTU21D;51367;45.204;38.576;2022-12-11T14:16:31;12.35;59.88
64874;HTU21D;51367;45.204;38.576;2022-12-11T14:19:05;12.30;59.98
64874;HTU21D;51367;45.204;38.576;2022-12-11T14:21:32;12.26;60.06
64874;HTU21D;51367;45.204;38.576;2022-12-11T14:23:59;12.19;60.09
64874;HTU21D;51367;45.204;38.576;2022-12-11T14:26:29;12.14;60.17
64874;HTU21D;51367;45.204;38.576;2022-12-11T14:28:56;12.06;60.29
64874;HTU21D;51367;45.204;38.576;2022-12-11T14:31:29;12.01;60.38
64874;HTU21D;51367;45.204;38.576;2022-12-11T14:34:04;11.94;60.49
64874;HTU21D;51367;45.204;38.576;2022-12-11T14:36:33;11.87;60.65
64874;HTU21D;51367;45.204;38.576;2022-12-11T14:44:30;11.71;61.02
64874;HTU21D;51367;45.204;38.576;2022-12-11T14:47:03;11.64;61.09
64874;HTU21D;51367;45.204;38.576;2022-12-11T14:49:54;11.57;61.21
64874;HTU21D;51367;45.204;38.576;2022-12-11T14:52:46;11.52;61.31
64874;HTU21D;51367;45.204;38.576;2022-12-11T14:55:28;11.45;61.41
64874;HTU21D;51367;45.204;38.576;2022-12-11T14:58:20;11.40;61.52
64874;HTU21D;51367;45.204;38.576;2022-12-11T15:00:43;11.32;61.64
64874;HTU21D;51367;45.204;38.576;2022-12-11T15:05:35;11.25;61.86
64874;HTU21D;51367;45.204;38.576;2022-12-11T15:08:16;11.23;61.95
64874;HTU21D;51367;45.204;38.576;2022-12-11T15:13:32;11.14;62.13
64874;HTU21D;51367;45.204;38.576;2022-12-11T15:16:00;11.12;62.23
64874;HTU21D;51367;45.204;38.576;2022-12-11T15:18:30;11.08;62.31
64874;HTU21D;51367;45.204;38.576;2022-12-11T15:21:00;11.05;62.36
64874;HTU21D;51367;45.204;38.576;2022-12-11T15:23:27;11.02;62.47
64874;HTU21D;51367;45.204;38.576;2022-12-11T15:25:56;10.99;62.48
64874;HTU21D;51367;45.204;38.576;2022-12-11T15:28:35;10.97;62.51
64874;HTU21D;51367;45.204;38.576;2022-12-11T15:31:21;10.94;62.63
64874;HTU21D;51367;45.204;38.576;2022-12-11T15:33:48;10.88;62.66
64874;HTU21D;51367;45.204;38.576;2022-12-11T15:36:34;10.85;62.73
64874;HTU21D;51367;45.204;38.576;2022-12-11T15:39:01;10.80;62.81
64874;HTU21D;51367;45.204;38.576;2022-12-11T15:41:27;10.77;62.89
64874;HTU21D;51367;45.204;38.576;2022-12-11T15:44:00;10.72;62.96
64874;HTU21D;51367;45.204;38.576;2022-12-11T15:46:26;10.70;63.02
64874;HTU21D;51367;45.204;38.576;2022-12-11T15:48:52;10.65;63.11
64874;HTU21D;51367;45.204;38.576;2022-12-11T15:51:20;10.62;63.20
64874;HTU21D;51367;45.204;38.576;2022-12-11T15:53:48;10.59;63.34
64874;HTU21D;51367;45.204;38.576;2022-12-11T15:56:15;10.58;63.43
64874;HTU21D;51367;45.204;38.576;2022-12-11T15:58:43;10.56;63.44
64874;HTU21D;51367;45.204;38.576;2022-12-11T16:01:09;10.54;63.50
64874;HTU21D;51367;45.204;38.576;2022-12-11T16:03:35;10.51;63.53
64874;HTU21D;51367;45.204;38.576;2022-12-11T16:06:02;10.50;63.60
64874;HTU21D;51367;45.204;38.576;2022-12-11T16:08:28;10.48;63.60
64874;HTU21D;51367;45.204;38.576;2022-12-11T16:10:54;10.46;63.66
64874;HTU21D;51367;45.204;38.576;2022-12-11T16:13:21;10.45;63.69
64874;HTU21D;51367;45.204;38.576;2022-12-11T16:15:48;10.42;63.76
64874;HTU21D;51367;45.204;38.576;2022-12-11T16:18:17;10.39;63.73
64874;HTU21D;51367;45.204;38.576;2022-12-11T16:20:44;10.35;63.79
64874;HTU21D;51367;45.204;38.576;2022-12-11T16:23:11;10.30;63.82
64874;HTU21D;51367;45.204;38.576;2022-12-11T16:25:42;10.27;63.91
64874;HTU21D;51367;45.204;38.576;2022-12-11T16:28:10;10.24;63.97
64874;HTU21D;51367;45.204;38.576;2022-12-11T16:30:36;10.20;64.01
64874;HTU21D;51367;45.204;38.576;2022-12-11T16:33:04;10.15;64.13
64874;HTU21D;51367;45.204;38.576;2022-12-11T16:35:30;10.10;64.21
64874;HTU21D;51367;45.204;38.576;2022-12-11T16:37:56;10.07;64.27
64874;HTU21D;51367;45.204;38.576;2022-12-11T16:40:23;10.01;64.33
64874;HTU21D;51367;45.204;38.576;2022-12-11T16:42:49;9.96;64.39
64874;HTU21D;51367;45.204;38.576;2022-12-11T16:45:23;9.92;64.44
64874;HTU21D;51367;45.204;38.576;2022-12-11T16:47:50;9.88;64.50
64874;HTU21D;51367;45.204;38.576;2022-12-11T16:50:17;9.81;64.63
64874;HTU21D;51367;45.204;38.576;2022-12-11T16:52:44;9.78;64.61
64874;HTU21D;51367;45.204;38.576;2022-12-11T16:55:11;9.75;64.70
64874;HTU21D;51367;45.204;38.576;2022-12-11T16:57:37;9.71;64.71
64874;HTU21D;51367;45.204;38.576;2022-12-11T17:00:05;9.68;64.81
64874;HTU21D;51367;45.204;38.576;2022-12-11T17:02:33;9.67;64.85
64874;HTU21D;51367;45.204;38.576;2022-12-11T17:04:59;9.64;64.90
64874;HTU21D;51367;45.204;38.576;2022-12-11T17:07:25;9.60;64.91
64874;HTU21D;51367;45.204;38.576;2022-12-11T17:09:52;9.59;64.93
64874;HTU21D;51367;45.204;38.576;2022-12-11T17:12:17;9.54;64.95
64874;HTU21D;51367;45.204;38.576;2022-12-11T17:14:47;9.52;65.00